Time;durP1;ratioP1;P1;durP2;ratioP2;P2;SDS_P1;SDS_P2;PMS_P1;PMS_P2;Temp;Humidity;BMP_temperature;BMP_pressure;BME280_temperature;BME280_humidity;BME280_pressure;Samples;Min_cycle;Max_cycle;Signal;HPM_P1;HPM_P2
2022/09/18 00:00:10;;;;;;;1.75;0.90;;;;;;;9.87;100.00;101346.22;1239117;23;20249;-79
2022/09/18 00:00:46;;;;;;;3.88;0.95;;;;;;;9.91;100.00;101344.81;1243938;23;20252;-79
2022/09/18 00:01:21;;;;;;;2.95;1.23;;;;;;;9.96;100.00;101341.53;1246304;23;20601;-78
2022/09/18 00:01:53;;;;;;;3.78;1.30;;;;;;;9.98;100.00;101335.00;1245242;23;20783;-79
2022/09/18 00:02:25;;;;;;;4.10;1.38;;;;;;;9.98;100.00;101340.31;1249352;23;20267;-79
2022/09/18 00:02:57;;;;;;;2.55;1.15;;;;;;;9.97;100.00;101343.19;1249956;23;20700;-79
2022/09/18 00:03:28;;;;;;;5.40;1.17;;;;;;;9.99;100.00;101338.47;1249853;23;20292;-79
2022/09/18 00:04:03;;;;;;;8.73;1.40;;;;;;;9.99;100.00;101341.13;1250712;23;20327;-79
2022/09/18 00:04:34;;;;;;;6.25;1.58;;;;;;;9.95;100.00;101338.06;1255778;23;20629;-79
2022/09/18 00:05:06;;;;;;;2.05;1.15;;;;;;;9.95;100.00;101338.06;1249765;23;20255;-79
2022/09/18 00:05:38;;;;;;;8.43;1.42;;;;;;;9.99;100.00;101338.47;1249902;23;20588;-79
2022/09/18 00:06:18;;;;;;;9.27;1.58;;;;;;;10.02;100.00;101336.22;1249755;23;20263;-79
2022/09/18 00:06:50;;;;;;;8.07;1.27;;;;;;;10.01;100.00;101339.91;1246498;23;20646;-79
2022/09/18 00:07:21;;;;;;;12.32;4.53;;;;;;;10.02;100.00;101336.22;1237883;24;20083;-78
2022/09/18 00:07:53;;;;;;;7.95;1.15;;;;;;;9.97;100.00;101344.00;1238088;24;20288;-79
2022/09/18 00:08:24;;;;;;;6.60;1.48;;;;;;;9.79;100.00;101346.38;1238891;23;20260;-79
2022/09/18 00:08:58;;;;;;;1.35;0.88;;;;;;;9.92;100.00;101341.13;1245455;23;20264;-80
2022/09/18 00:09:29;;;;;;;4.30;1.73;;;;;;;9.93;100.00;101337.44;1256241;23;20259;-79
2022/09/18 00:10:01;;;;;;;5.75;1.40;;;;;;;9.98;100.00;101340.31;1247894;23;20271;-79
2022/09/18 00:10:38;;;;;;;7.78;1.48;;;;;;;10.03;100.00;101340.53;1249755;23;20296;-79
2022/09/18 00:11:12;;;;;;;6.45;2.10;;;;;;;9.96;100.00;101347.69;1244008;23;20288;-79
2022/09/18 00:11:46;;;;;;;4.18;1.10;;;;;;;9.94;100.00;101340.91;1239840;23;20301;-80
2022/09/18 00:12:18;;;;;;;2.38;1.08;;;;;;;9.88;100.00;101346.03;1243876;23;20259;-79
2022/09/18 00:12:49;;;;;;;5.75;1.38;;;;;;;9.83;100.00;101344.94;1245751;23;20261;-79
2022/09/18 00:13:21;;;;;;;6.68;1.92;;;;;;;9.82;100.00;101346.78;1245129;23;20292;-79
2022/09/18 00:13:53;;;;;;;7.13;1.83;;;;;;;9.88;100.00;101342.53;1249894;23;20258;-79
2022/09/18 00:14:25;;;;;;;5.78;1.50;;;;;;;9.86;100.00;101342.75;1249865;23;20259;-79
2022/09/18 00:14:56;;;;;;;4.05;1.33;;;;;;;9.83;100.00;101344.94;1250611;23;20252;-79
2022/09/18 00:15:28;;;;;;;3.72;1.20;;;;;;;9.82;100.00;101340.66;1255708;23;20266;-79
2022/09/18 00:15:59;;;;;;;3.83;3.35;;;;;;;9.84;100.00;101344.75;1255465;23;20334;-79
2022/09/18 00:16:31;;;;;;;2.33;0.93;;;;;;;9.88;100.00;101345.19;1256082;23;20259;-79
2022/09/18 00:17:03;;;;;;;5.57;3.25;;;;;;;9.88;100.00;101345.19;1249891;23;20399;-79
2022/09/18 00:17:39;;;;;;;5.10;1.85;;;;;;;9.91;100.00;101342.97;1249629;23;20256;-79
2022/09/18 00:18:11;;;;;;;3.47;1.10;;;;;;;9.90;100.00;101345.81;1249885;23;20244;-79
2022/09/18 00:18:43;;;;;;;1.83;1.13;;;;;;;9.86;100.00;101347.22;1249291;23;20367;-79
2022/09/18 00:19:15;;;;;;;7.95;1.70;;;;;;;9.88;100.00;101339.88;1249853;23;20732;-79
2022/09/18 00:19:47;;;;;;;3.63;1.33;;;;;;;9.92;100.00;101346.44;1249715;23;20284;-79
2022/09/18 00:20:19;;;;;;;5.45;1.35;;;;;;;9.85;100.00;101337.59;1243774;23;20260;-79
2022/09/18 00:20:51;;;;;;;4.28;0.98;;;;;;;9.78;100.00;101340.22;1245126;23;20264;-79
2022/09/18 00:21:23;;;;;;;6.13;1.33;;;;;;;9.86;100.00;101332.09;1241684;23;20756;-79
2022/09/18 00:21:55;;;;;;;4.97;1.27;;;;;;;9.83;100.00;101336.97;1250508;23;20261;-79
2022/09/18 00:22:27;;;;;;;6.22;2.15;;;;;;;9.81;100.00;101341.69;1249902;23;20308;-79
2022/09/18 00:22:58;;;;;;;1.92;1.20;;;;;;;9.82;100.00;101340.66;1244566;23;20261;-79
2022/09/18 00:23:30;;;;;;;4.45;1.05;;;;;;;9.78;100.00;101334.09;1248948;23;20807;-79
2022/09/18 00:24:02;;;;;;;4.57;1.15;;;;;;;9.81;100.00;101336.34;1244835;23;20252;-79
2022/09/18 00:24:34;;;;;;;4.28;1.30;;;;;;;9.78;100.00;101334.09;1244316;23;20716;-78
2022/09/18 00:25:07;;;;;;;9.63;2.10;;;;;;;9.76;100.00;101336.13;1249457;23;20268;-79
2022/09/18 00:25:40;;;;;;;1.88;1.35;;;;;;;9.75;100.00;101334.50;1249732;23;20726;-79
2022/09/18 00:26:13;;;;;;;5.32;0.98;;;;;;;9.82;100.00;101335.34;1250745;23;20282;-79
2022/09/18 00:26:46;;;;;;;2.55;0.93;;;;;;;9.75;100.00;101342.47;1249771;23;20258;-79
2022/09/18 00:27:18;;;;;;;1.73;1.20;;;;;;;9.79;100.00;101336.56;1249471;23;20596;-79
2022/09/18 00:27:49;;;;;;;7.32;1.33;;;;;;;9.83;100.00;101336.97;1249622;23;20599;-79
2022/09/18 00:28:21;;;;;;;5.55;2.15;;;;;;;9.87;100.00;101332.91;1250904;23;20611;-79
2022/09/18 00:28:53;;;;;;;6.60;1.20;;;;;;;9.84;100.00;101334.13;1247356;23;20271;-78
2022/09/18 00:29:25;;;;;;;6.93;1.00;;;;;;;9.89;100.00;101329.03;1236057;24;20276;-79
2022/09/18 00:29:56;;;;;;;4.95;1.30;;;;;;;9.88;100.00;101331.91;1238235;24;20257;-79
2022/09/18 00:30:28;;;;;;;5.47;1.65;;;;;;;9.87;100.00;101332.91;1238583;23;20741;-78
2022/09/18 00:31:14;;;;;;;3.60;1.35;;;;;;;9.86;100.00;101331.25;1245183;23;20798;-78
2022/09/18 00:31:46;;;;;;;5.53;1.88;;;;;;;9.88;100.00;101340.72;1247367;23;20278;-79
2022/09/18 00:32:18;;;;;;;2.63;1.13;;;;;;;9.84;100.00;101328.78;1247724;23;20271;-79
2022/09/18 00:32:50;;;;;;;7.72;1.38;;;;;;;9.87;100.00;101328.41;1247495;23;20271;-79
2022/09/18 00:33:21;;;;;;;5.82;2.33;;;;;;;9.89;100.00;101328.22;1250552;23;20255;-79
2022/09/18 00:33:53;;;;;;;8.25;1.17;;;;;;;9.86;100.00;101323.28;1252629;23;20263;-79
2022/09/18 00:34:24;;;;;;;7.40;1.63;;;;;;;9.85;100.00;101326.94;1250410;23;20260;-79
2022/09/18 00:34:56;;;;;;;4.85;2.08;;;;;;;9.78;100.00;101324.28;1247608;23;20274;-79
2022/09/18 00:35:27;;;;;;;4.68;1.13;;;;;;;9.83;100.00;101326.34;1243741;23;20265;-79
2022/09/18 00:36:01;;;;;;;8.88;1.75;;;;;;;9.83;100.00;101332.47;1247694;23;20271;-79
2022/09/18 00:36:34;;;;;;;6.65;1.15;;;;;;;9.88;100.00;101323.91;1242202;23;20295;-79
2022/09/18 00:37:06;;;;;;;5.68;1.42;;;;;;;9.87;100.00;101328.41;1241603;23;20276;-79
2022/09/18 00:37:38;;;;;;;4.75;2.20;;;;;;;9.77;100.00;101321.81;1238026;24;20275;-79
2022/09/18 00:38:09;;;;;;;6.63;1.17;;;;;;;9.85;100.00;101326.94;1242769;23;20733;-78
2022/09/18 00:38:41;;;;;;;4.88;1.13;;;;;;;9.80;100.00;101332.88;1242290;23;20316;-79
2022/09/18 00:39:13;;;;;;;2.10;0.90;;;;;;;9.79;100.00;101322.44;1244728;23;20259;-78
2022/09/18 00:39:45;;;;;;;6.20;2.63;;;;;;;9.81;100.00;101323.06;1248923;23;20283;-79
2022/09/18 00:40:16;;;;;;;1.80;1.70;;;;;;;9.82;100.00;101322.03;1244667;23;20256;-79
2022/09/18 00:40:48;;;;;;;4.68;1.33;;;;;;;9.85;100.00;101324.28;1250368;23;20260;-79
2022/09/18 00:41:23;;;;;;;3.42;1.25;;;;;;;9.86;100.00;101328.59;1255512;23;20362;-79
2022/09/18 00:41:55;;;;;;;3.83;1.52;;;;;;;9.93;100.00;101325.97;1241891;23;20280;-78
2022/09/18 00:42:26;;;;;;;12.00;1.73;;;;;;;9.84;100.00;101330.63;1235367;24;20364;-78
2022/09/18 00:42:58;;;;;;;5.68;2.80;;;;;;;9.87;100.00;101338.25;1238007;24;20995;-79
2022/09/18 00:43:32;;;;;;;1.48;0.85;;;;;;;9.88;100.00;101335.38;1239497;23;20309;-78
2022/09/18 00:44:28;;;;;;;3.05;1.30;;;;;;;9.83;100.00;101331.66;1244550;23;20271;-79
2022/09/18 00:45:00;;;;;;;2.50;0.88;;;;;;;9.79;100.00;101325.91;1247096;23;20565;-78
2022/09/18 00:45:31;;;;;;;7.38;0.82;;;;;;;9.78;100.00;101339.41;1249331;23;20343;-78
2022/09/18 00:46:14;;;;;;;7.88;1.13;;;;;;;9.73;100.00;101333.88;1249470;23;20815;-79
2022/09/18 00:46:46;;;;;;;3.78;1.35;;;;;;;9.84;100.00;101335.94;1241554;23;21160;-78
2022/09/18 00:47:25;;;;;;;8.25;2.35;;;;;;;9.83;100.00;101343.13;1243831;23;20331;-78
2022/09/18 00:47:57;;;;;;;3.25;1.52;;;;;;;9.84;100.00;101330.63;1242178;23;20253;-79
2022/09/18 00:48:57;;;;;;;10.20;2.63;;;;;;;9.81;100.00;101339.84;1243392;23;20725;-79
2022/09/18 00:49:29;;;;;;;4.35;1.45;;;;;;;9.88;100.00;101334.56;1240163;23;20265;-78
2022/09/18 00:50:06;;;;;;;7.40;1.38;;;;;;;9.83;100.00;101336.97;1247915;23;20271;-78
2022/09/18 00:50:37;;;;;;;4.97;1.48;;;;;;;9.87;100.00;101327.59;1243206;23;20562;-78
2022/09/18 00:51:09;;;;;;;3.75;1.40;;;;;;;9.80;100.00;101332.88;1243877;23;20420;-78
2022/09/18 00:51:59;;;;;;;7.07;1.70;;;;;;;9.81;100.00;101329.19;1249967;23;20251;-78
2022/09/18 00:52:56;;;;;;;5.85;1.48;;;;;;;9.79;100.00;101335.72;1254010;23;20338;-78
2022/09/18 00:53:28;;;;;;;9.43;2.40;;;;;;;9.80;100.00;101337.38;1258229;23;20266;-78
2022/09/18 00:54:05;;;;;;;4.63;1.15;;;;;;;9.77;100.00;101327.13;1243815;23;20728;-78
2022/09/18 00:54:40;;;;;;;4.10;1.15;;;;;;;9.79;100.00;101333.06;1238047;24;20261;-78
2022/09/18 00:55:12;;;;;;;6.72;1.65;;;;;;;9.81;100.00;101333.69;1232271;24;20254;-78
2022/09/18 00:55:44;;;;;;;4.05;1.33;;;;;;;9.82;100.00;101330.00;1234308;24;20265;-79
2022/09/18 00:56:16;;;;;;;5.82;1.77;;;;;;;9.81;100.00;101323.88;1238911;23;20601;-78
2022/09/18 00:56:50;;;;;;;6.57;1.48;;;;;;;9.82;100.00;101330.00;1241861;23;20786;-78
2022/09/18 00:57:26;;;;;;;8.63;1.30;;;;;;;9.88;100.00;101331.91;1251164;23;20267;-78
2022/09/18 00:58:01;;;;;;;2.45;1.23;;;;;;;9.93;100.00;101332.13;1249852;23;20895;-78
2022/09/18 00:58:32;;;;;;;4.15;1.00;;;;;;;9.84;100.00;101335.94;1251707;23;20267;-78
2022/09/18 00:59:04;;;;;;;4.32;1.20;;;;;;;9.86;100.00;101339.22;1253350;23;20254;-78
2022/09/18 00:59:36;;;;;;;11.25;1.05;;;;;;;9.85;100.00;101329.59;1242948;23;20296;-78
2022/09/18 01:00:13;;;;;;;5.03;2.03;;;;;;;9.88;100.00;101326.56;1249696;23;20713;-78
2022/09/18 01:00:44;;;;;;;3.47;1.15;;;;;;;9.87;100.00;101332.91;1249657;23;20730;-78
2022/09/18 01:01:16;;;;;;;5.55;1.60;;;;;;;9.79;100.00;101335.72;1250901;23;20260;-78
2022/09/18 01:01:48;;;;;;;5.82;0.95;;;;;;;9.77;100.00;101337.78;1255751;23;20251;-78
2022/09/18 01:02:20;;;;;;;4.68;1.02;;;;;;;9.84;100.00;101334.13;1255616;23;20761;-78
2022/09/18 01:02:52;;;;;;;7.55;1.38;;;;;;;9.82;100.00;101340.66;1249060;23;20696;-78
2022/09/18 01:03:24;;;;;;;5.30;1.42;;;;;;;9.82;100.00;101343.31;1249773;23;20258;-78
2022/09/18 01:03:55;;;;;;;7.55;1.75;;;;;;;9.81;100.00;101336.34;1252780;23;20361;-78
2022/09/18 01:04:28;;;;;;;4.47;1.73;;;;;;;9.75;100.00;101337.16;1248392;23;20270;-78
2022/09/18 01:04:59;;;;;;;4.47;1.98;;;;;;;9.80;100.00;101332.88;1241691;23;20307;-78
2022/09/18 01:05:46;;;;;;;4.32;1.40;;;;;;;9.85;100.00;101337.59;1237006;24;20308;-78
2022/09/18 01:06:29;;;;;;;7.30;1.42;;;;;;;9.85;100.00;101332.28;1227774;24;20614;-78
2022/09/18 01:07:04;;;;;;;7.07;2.08;;;;;;;9.86;100.00;101334.75;1237820;24;20288;-78
2022/09/18 01:08:12;;;;;;;9.30;1.75;;;;;;;9.85;100.00;101338.41;1235883;24;20276;-78
2022/09/18 01:08:47;;;;;;;5.28;1.33;;;;;;;9.80;100.00;101337.38;1249808;23;20333;-79
2022/09/18 01:09:59;;;;;;;3.72;1.02;;;;;;;9.82;100.00;101340.66;1245971;23;20584;-78
2022/09/18 01:10:59;;;;;;;2.85;1.55;;;;;;;9.86;100.00;101339.22;1249685;23;20621;-78
2022/09/18 01:11:40;;;;;;;13.32;2.15;;;;;;;9.90;100.00;101332.53;1256075;23;20066;-78
2022/09/18 01:12:21;;;;;;;5.93;1.38;;;;;;;9.85;100.00;101335.75;1247688;23;20268;-78
2022/09/18 01:13:04;;;;;;;4.95;1.80;;;;;;;9.83;100.00;101335.13;1243872;23;20073;-78
2022/09/18 01:13:39;;;;;;;10.02;2.05;;;;;;;9.81;100.00;101328.38;1241058;23;20268;-78
2022/09/18 01:14:35;;;;;;;9.45;2.33;;;;;;;9.84;100.00;101328.78;1249195;23;20256;-78
2022/09/18 01:15:19;;;;;;;9.32;1.85;;;;;;;9.85;100.00;101329.59;1241419;23;20268;-78
2022/09/18 01:16:16;;;;;;;3.60;1.35;;;;;;;9.82;100.00;101330.00;1237905;24;20260;-78
2022/09/18 01:16:58;;;;;;;5.90;1.45;;;;;;;9.94;100.00;101323.13;1227567;24;20648;-79
2022/09/18 01:17:35;;;;;;;10.27;3.45;;;;;;;9.91;100.00;101324.34;1239133;23;20293;-78
2022/09/18 01:18:19;;;;;;;4.53;1.77;;;;;;;9.86;100.00;101332.09;1235796;23;20279;-79
2022/09/18 01:19:30;;;;;;;7.07;2.33;;;;;;;9.82;100.00;101324.69;1241539;23;20337;-78
2022/09/18 01:20:18;;;;;;;6.55;1.70;;;;;;;9.88;100.00;101329.25;1236290;24;20277;-78
2022/09/18 01:20:56;;;;;;;3.70;1.40;;;;;;;9.83;100.00;101321.00;1240805;23;20276;-78
2022/09/18 01:21:32;;;;;;;8.88;1.85;;;;;;;9.81;100.00;101328.38;1241084;23;20707;-77
2022/09/18 01:22:30;;;;;;;7.25;1.92;;;;;;;9.87;100.00;101322.28;1252813;23;20274;-78
2022/09/18 01:23:31;;;;;;;5.85;2.50;;;;;;;9.82;100.00;101327.34;1255027;23;20282;-78
2022/09/18 01:24:06;;;;;;;6.05;1.60;;;;;;;9.80;100.00;101326.72;1241928;23;20713;-78
2022/09/18 01:24:50;;;;;;;5.03;2.10;;;;;;;9.80;100.00;101327.56;1243277;23;20379;-78
2022/09/18 01:25:40;;;;;;;6.25;2.38;;;;;;;9.84;100.00;101327.97;1237819;24;20260;-78
2022/09/18 01:26:31;;;;;;;7.50;2.53;;;;;;;9.87;100.00;101322.28;1247382;23;20263;-78
2022/09/18 01:27:04;;;;;;;8.07;1.90;;;;;;;9.93;100.00;101318.00;1235807;24;20140;-78
2022/09/18 01:27:53;;;;;;;10.52;2.40;;;;;;;9.90;100.00;101321.88;1235997;24;20328;-78
2022/09/18 01:28:38;;;;;;;10.00;3.30;;;;;;;9.82;100.00;101322.03;1229928;24;20269;-78
2022/09/18 01:29:17;;;;;;;5.72;1.70;;;;;;;9.83;100.00;101327.16;1244847;23;20256;-78
2022/09/18 01:29:57;;;;;;;5.57;1.52;;;;;;;9.85;100.00;101324.28;1253583;23;20271;-78
2022/09/18 01:30:30;;;;;;;10.52;1.50;;;;;;;9.86;100.00;101320.59;1255484;23;20263;-78
2022/09/18 01:31:07;;;;;;;5.00;1.90;;;;;;;9.84;100.00;101322.66;1247653;23;20279;-78
2022/09/18 01:31:45;;;;;;;6.47;2.28;;;;;;;9.87;100.00;101322.28;1249631;23;20252;-78
2022/09/18 01:32:26;;;;;;;7.72;1.77;;;;;;;9.84;100.00;101322.66;1241764;23;20264;-78
2022/09/18 01:33:03;;;;;;;6.47;1.38;;;;;;;9.83;100.00;101321.00;1246230;23;20298;-78
2022/09/18 01:34:11;;;;;;;8.27;2.25;;;;;;;9.82;100.00;101319.38;1236031;24;20269;-78
2022/09/18 01:34:47;;;;;;;7.10;1.65;;;;;;;9.76;100.00;101328.16;1241600;23;20751;-78
2022/09/18 01:35:38;;;;;;;3.55;1.92;;;;;;;9.74;100.00;101311.56;1248886;23;20803;-78
2022/09/18 01:36:16;;;;;;;4.40;1.70;;;;;;;9.77;100.00;101316.50;1241463;23;20279;-78
2022/09/18 01:36:52;;;;;;;7.07;2.22;;;;;;;9.80;100.00;101322.22;1241302;23;20268;-78
2022/09/18 01:37:36;;;;;;;5.20;2.40;;;;;;;9.76;100.00;101314.84;1247564;23;20669;-78
2022/09/18 01:38:31;;;;;;;6.75;2.25;;;;;;;9.85;100.00;101318.97;1247681;23;20393;-78
2022/09/18 01:39:19;;;;;;;5.95;4.45;;;;;;;9.86;100.00;101315.28;1235649;24;20265;-78
2022/09/18 01:39:59;;;;;;;5.72;1.75;;;;;;;9.91;100.00;101318.19;1232153;24;20674;-78
2022/09/18 01:40:32;;;;;;;6.43;2.22;;;;;;;9.87;100.00;101319.63;1238074;24;20594;-78
2022/09/18 01:41:09;;;;;;;4.72;1.73;;;;;;;9.87;100.00;101311.63;1240976;23;20336;-78
2022/09/18 01:41:41;;;;;;;4.57;1.55;;;;;;;9.91;100.00;101312.88;1245066;23;20710;-78
2022/09/18 01:42:16;;;;;;;9.13;2.33;;;;;;;9.83;100.00;101305.88;1243658;23;20614;-78
2022/09/18 01:42:52;;;;;;;8.68;1.95;;;;;;;9.80;100.00;101308.09;1239024;23;20265;-78
2022/09/18 01:43:25;;;;;;;8.73;1.77;;;;;;;9.82;100.00;101314.06;1237901;23;20330;-78
2022/09/18 01:44:03;;;;;;;10.05;2.47;;;;;;;9.88;100.00;101310.63;1235850;24;20273;-77
2022/09/18 01:44:36;;;;;;;6.78;2.58;;;;;;;9.86;100.00;101304.66;1241423;23;20276;-77
2022/09/18 01:45:11;;;;;;;6.70;1.65;;;;;;;9.91;100.00;101312.88;1237626;24;20591;-78
2022/09/18 01:45:45;;;;;;;6.28;1.50;;;;;;;9.89;100.00;101305.09;1240284;23;20733;-78
2022/09/18 01:46:21;;;;;;;5.35;2.08;;;;;;;9.87;100.00;101311.63;1232027;24;20274;-78
2022/09/18 01:46:55;;;;;;;6.95;2.00;;;;;;;9.81;100.00;101302.59;1238357;23;20368;-78
2022/09/18 01:47:31;;;;;;;6.65;2.47;;;;;;;9.91;100.00;101303.03;1235843;23;20283;-78
2022/09/18 01:48:06;;;;;;;4.28;1.83;;;;;;;9.89;100.00;101305.09;1243424;23;20314;-78
2022/09/18 01:48:49;;;;;;;8.52;1.50;;;;;;;9.89;100.00;101296.28;1241628;23;20756;-78
2022/09/18 01:49:28;;;;;;;4.60;1.50;;;;;;;9.89;100.00;101309.59;1235830;23;20280;-78
2022/09/18 01:50:00;;;;;;;5.75;2.00;;;;;;;9.87;100.00;101299.16;1241537;23;20283;-78
2022/09/18 01:50:35;;;;;;;8.82;2.05;;;;;;;9.91;100.00;101297.72;1235861;24;20357;-78
2022/09/18 01:51:19;;;;;;;5.50;1.95;;;;;;;9.87;100.00;101301.81;1238322;23;20617;-78
2022/09/18 01:52:19;;;;;;;7.32;2.53;;;;;;;9.85;100.00;101306.47;1230295;24;20277;-78
2022/09/18 01:53:08;;;;;;;3.53;1.85;;;;;;;9.87;100.00;101301.81;1235259;23;20273;-78
2022/09/18 01:53:44;;;;;;;6.50;2.38;;;;;;;9.90;100.00;101300.59;1248989;23;20275;-78
2022/09/18 01:54:22;;;;;;;4.97;1.70;;;;;;;9.89;100.00;101305.09;1247471;23;20298;-78
2022/09/18 01:54:56;;;;;;;5.82;2.63;;;;;;;9.84;100.00;101309.34;1241299;23;20269;-78
2022/09/18 01:55:29;;;;;;;5.95;1.10;;;;;;;9.94;100.00;101309.00;1229738;24;20266;-78
2022/09/18 01:56:06;;;;;;;4.30;1.40;;;;;;;9.86;100.00;101302.84;1235770;24;20273;-78
2022/09/18 01:56:45;;;;;;;10.68;3.17;;;;;;;9.83;100.00;101300.53;1235207;24;20280;-78
2022/09/18 01:57:31;;;;;;;11.32;2.20;;;;;;;9.89;100.00;101304.28;1235656;24;20273;-78
2022/09/18 01:58:07;;;;;;;4.93;1.73;;;;;;;9.87;100.00;101306.31;1235565;24;20292;-78
2022/09/18 01:58:38;;;;;;;2.88;1.40;;;;;;;9.93;100.00;101307.34;1241163;23;20605;-78
2022/09/18 01:59:15;;;;;;;10.52;1.95;;;;;;;9.86;100.00;101304.66;1247720;23;20260;-78
2022/09/18 02:00:00;;;;;;;6.45;1.20;;;;;;;9.93;100.00;101307.34;1243693;23;20349;-78
2022/09/18 02:00:36;;;;;;;4.38;1.40;;;;;;;9.88;100.00;101298.13;1252336;23;20278;-78
2022/09/18 02:01:12;;;;;;;7.00;1.30;;;;;;;9.93;100.00;101297.53;1242017;23;20718;-78
2022/09/18 02:01:45;;;;;;;5.15;1.50;;;;;;;9.96;100.00;101304.28;1239028;23;20272;-78
2022/09/18 02:02:27;;;;;;;4.93;1.88;;;;;;;9.84;100.00;101302.19;1235674;24;20507;-78
2022/09/18 02:03:04;;;;;;;5.32;1.70;;;;;;;9.88;100.00;101310.63;1245769;23;20280;-78
2022/09/18 02:03:45;;;;;;;10.07;1.83;;;;;;;9.88;100.00;101302.63;1251410;23;20574;-78
2022/09/18 02:04:24;;;;;;;3.00;1.63;;;;;;;9.85;100.00;101303.00;1247557;23;20272;-78
2022/09/18 02:04:59;;;;;;;7.00;1.73;;;;;;;9.90;100.00;101300.59;1231163;24;20067;-78
2022/09/18 02:05:42;;;;;;;4.03;1.40;;;;;;;9.82;100.00;101308.72;1236656;24;20445;-78
2022/09/18 02:06:41;;;;;;;4.03;1.83;;;;;;;9.87;100.00;101301.00;1241164;23;20665;-78
2022/09/18 02:07:18;;;;;;;3.85;1.70;;;;;;;9.89;100.00;101312.25;1236220;24;20279;-78
2022/09/18 02:08:16;;;;;;;6.30;2.40;;;;;;;9.93;100.00;101304.69;1236493;23;20723;-78
2022/09/18 02:08:52;;;;;;;10.32;1.70;;;;;;;9.93;100.00;101294.88;1232223;23;20824;-78
2022/09/18 02:09:26;;;;;;;5.45;2.05;;;;;;;9.94;100.00;101299.16;1242291;23;20276;-78
2022/09/18 02:09:58;;;;;;;8.27;1.88;;;;;;;9.95;100.00;101290.16;1242055;23;20272;-78
2022/09/18 02:10:34;;;;;;;5.60;2.10;;;;;;;9.87;100.00;101301.00;1249943;23;20283;-78
2022/09/18 02:11:11;;;;;;;7.55;1.60;;;;;;;9.88;100.00;101299.97;1243768;23;20272;-78
2022/09/18 02:11:49;;;;;;;3.40;1.30;;;;;;;9.85;100.00;101306.47;1236011;24;20368;-78
2022/09/18 02:12:23;;;;;;;3.17;1.65;;;;;;;9.77;100.00;101295.22;1236189;23;20269;-77
2022/09/18 02:12:59;;;;;;;7.28;2.28;;;;;;;9.81;100.00;101297.25;1241843;23;20320;-78
2022/09/18 02:13:35;;;;;;;4.85;1.95;;;;;;;9.85;100.00;101298.50;1242287;23;20721;-78
2022/09/18 02:14:36;;;;;;;4.25;1.45;;;;;;;9.80;100.00;101305.44;1241943;23;20305;-78
2022/09/18 02:15:28;;;;;;;8.07;1.77;;;;;;;9.85;100.00;101292.38;1245946;23;20738;-78
2022/09/18 02:16:11;;;;;;;7.82;1.55;;;;;;;9.87;100.00;101301.00;1241865;23;20574;-78
2022/09/18 02:16:47;;;;;;;4.57;1.50;;;;;;;9.89;100.00;101293.63;1231034;24;20672;-78
2022/09/18 02:17:46;;;;;;;14.32;3.55;;;;;;;9.83;100.00;101291.75;1235987;23;20268;-78
2022/09/18 02:18:25;;;;;;;5.70;1.70;;;;;;;9.87;100.00;101299.16;1234980;23;20258;-78
2022/09/18 02:18:59;;;;;;;7.63;1.70;;;;;;;9.87;100.00;101290.34;1249623;23;20287;-78
2022/09/18 02:19:38;;;;;;;10.80;2.13;;;;;;;9.93;100.00;101294.88;1236209;24;20820;-78
2022/09/18 02:20:18;;;;;;;3.95;1.25;;;;;;;9.82;100.00;101292.75;1246231;23;20344;-78
2022/09/18 02:20:50;;;;;;;3.53;1.80;;;;;;;9.90;100.00;101284.63;1249934;23;20743;-78
2022/09/18 02:21:26;;;;;;;6.57;1.48;;;;;;;9.87;100.00;101290.34;1249893;23;20315;-78
2022/09/18 02:22:00;;;;;;;5.70;1.60;;;;;;;9.95;100.00;101292.81;1245487;23;20259;-78
2022/09/18 02:22:33;;;;;;;12.30;2.47;;;;;;;9.92;100.00;101290.56;1238150;24;20260;-78
2022/09/18 02:23:06;;;;;;;12.77;2.65;;;;;;;9.89;100.00;101283.81;1243729;23;20271;-78
2022/09/18 02:23:40;;;;;;;6.05;1.73;;;;;;;9.88;100.00;101292.00;1237694;23;20271;-78
2022/09/18 02:24:14;;;;;;;5.60;2.13;;;;;;;9.87;100.00;101290.34;1245005;23;20280;-76
2022/09/18 02:24:49;;;;;;;6.25;1.73;;;;;;;9.93;100.00;101288.72;1240088;23;20272;-76
2022/09/18 02:25:25;;;;;;;3.97;1.58;;;;;;;9.84;100.00;101290.72;1246096;23;20812;-76
2022/09/18 02:25:59;;;;;;;7.63;1.35;;;;;;;9.84;100.00;101296.88;1247298;23;20267;-76
2022/09/18 02:26:33;;;;;;;5.80;2.15;;;;;;;9.86;100.00;101288.69;1249822;23;20260;-76
2022/09/18 02:27:06;;;;;;;3.30;1.73;;;;;;;9.94;100.00;101291.19;1243764;23;20256;-76
2022/09/18 02:27:38;;;;;;;6.38;1.83;;;;;;;9.96;100.00;101290.97;1251302;23;20244;-76
2022/09/18 02:28:13;;;;;;;7.47;1.90;;;;;;;10.00;100.00;101289.56;1253228;23;20290;-76
2022/09/18 02:28:46;;;;;;;4.88;1.73;;;;;;;9.92;100.00;101293.22;1243554;23;20328;-76
2022/09/18 02:29:19;;;;;;;4.00;1.58;;;;;;;9.96;100.00;101294.47;1234399;24;20277;-76
2022/09/18 02:29:52;;;;;;;13.35;1.95;;;;;;;9.96;100.00;101294.47;1229885;24;20273;-76
2022/09/18 02:30:24;;;;;;;3.80;1.45;;;;;;;9.92;100.00;101290.56;1239272;23;20294;-76
2022/09/18 02:30:59;;;;;;;8.85;1.98;;;;;;;9.87;100.00;101293.84;1244884;23;20315;-76
2022/09/18 02:31:31;;;;;;;6.88;1.15;;;;;;;9.91;100.00;101287.09;1241861;23;20668;-76
2022/09/18 02:32:03;;;;;;;6.68;1.98;;;;;;;9.96;100.00;101294.47;1241706;23;20268;-76
2022/09/18 02:32:36;;;;;;;8.40;1.65;;;;;;;9.95;100.00;101287.50;1237755;24;20269;-77
2022/09/18 02:33:44;;;;;;;2.92;1.48;;;;;;;9.92;100.00;101293.22;1236904;23;20284;-76
2022/09/18 02:34:16;;;;;;;7.78;1.63;;;;;;;9.94;100.00;101291.19;1224343;24;20274;-76
2022/09/18 02:34:49;;;;;;;9.10;1.73;;;;;;;9.95;100.00;101297.31;1229229;24;20281;-76
2022/09/18 02:35:26;;;;;;;6.53;1.20;;;;;;;9.95;100.00;101292.81;1218178;24;20412;-76
2022/09/18 02:35:57;;;;;;;9.75;1.42;;;;;;;9.96;100.00;101294.47;1229871;24;20273;-76
2022/09/18 02:36:37;;;;;;;8.68;1.70;;;;;;;9.94;100.00;101285.84;1229842;23;20812;-76
2022/09/18 02:37:31;;;;;;;5.03;1.45;;;;;;;9.94;100.00;101291.19;1240461;23;20363;-77
2022/09/18 02:38:40;;;;;;;5.82;1.52;;;;;;;10.01;100.00;101289.34;1244077;23;20452;-76
2022/09/18 02:39:24;;;;;;;8.52;2.85;;;;;;;9.95;100.00;101282.19;1241327;23;20275;-76
2022/09/18 02:40:18;;;;;;;5.85;1.23;;;;;;;9.90;100.00;101284.63;1246139;23;20275;-76
2022/09/18 02:41:01;;;;;;;9.27;1.40;;;;;;;9.90;100.00;101285.44;1245030;23;20260;-76
2022/09/18 02:42:00;;;;;;;10.93;1.40;;;;;;;9.91;100.00;101292.41;1247791;23;20267;-76
2022/09/18 02:43:03;;;;;;;8.95;1.92;;;;;;;9.95;100.00;101292.00;1247456;23;20275;-76
2022/09/18 02:43:45;;;;;;;12.18;1.77;;;;;;;9.97;100.00;101282.78;1241574;23;20336;-76
2022/09/18 02:44:31;;;;;;;6.25;1.95;;;;;;;9.96;100.00;101291.81;1238544;23;20277;-75
2022/09/18 02:45:09;;;;;;;8.32;1.80;;;;;;;9.92;100.00;101279.91;1235888;24;20277;-76
2022/09/18 02:45:54;;;;;;;7.35;1.40;;;;;;;10.03;100.00;101276.66;1235911;24;20781;-76
2022/09/18 02:46:41;;;;;;;11.30;2.15;;;;;;;10.01;100.00;101285.88;1237620;24;20613;-76
2022/09/18 02:47:32;;;;;;;9.80;2.28;;;;;;;10.07;100.00;101280.56;1241952;23;20279;-76
2022/09/18 02:48:18;;;;;;;9.40;1.42;;;;;;;10.04;100.00;101269.50;1249716;23;20713;-76
2022/09/18 02:48:55;;;;;;;10.77;1.65;;;;;;;10.06;100.00;101278.09;1248720;23;20027;-76
2022/09/18 02:49:59;;;;;;;6.25;2.35;;;;;;;10.08;100.00;101276.88;1241740;23;20291;-76
2022/09/18 02:50:50;;;;;;;9.02;2.10;;;;;;;10.02;100.00;101271.53;1241506;23;20753;-76
2022/09/18 02:51:31;;;;;;;10.02;2.38;;;;;;;10.11;100.00;101273.78;1241549;23;20268;-76
2022/09/18 02:52:04;;;;;;;10.98;2.53;;;;;;;10.12;100.00;101272.78;1235557;24;20325;-76
2022/09/18 02:52:51;;;;;;;4.88;1.42;;;;;;;10.13;100.00;101268.25;1235720;24;20614;-76
2022/09/18 02:53:29;;;;;;;10.00;2.42;;;;;;;10.08;100.00;101271.53;1243322;23;20654;-76
2022/09/18 02:54:23;;;;;;;7.80;1.77;;;;;;;10.07;100.00;101269.09;1240622;23;20268;-76
2022/09/18 02:55:01;;;;;;;3.40;1.10;;;;;;;10.07;100.00;101275.22;1247495;23;20278;-76
2022/09/18 02:55:57;;;;;;;10.60;1.58;;;;;;;10.01;100.00;101270.72;1249313;23;20628;-76
2022/09/18 02:56:37;;;;;;;4.10;1.17;;;;;;;10.09;100.00;101270.53;1242045;23;20296;-76
2022/09/18 02:57:25;;;;;;;10.75;2.30;;;;;;;10.05;100.00;101271.94;1235663;24;20279;-76